Eldorado — PEEA — position and weather

sailwx.info

Track history (hours):
 
Tides and Currents Weather Stations Pressure Air Temp Water Temp Dewpoint Dewpoint Depression Visibility Wind Speed Wind Dir Waves Ship Positions

Eldorado

Last reported at 2018-May-23 16:01 UTC. Time now 2018-May-26 00:40 UTC.
Position N 18°01' W 063°03'.

Length 38 m; draft 3 m.

Type: Sailing vessel. MMSI: 244670000.

Date/timePositionNaut miles runAvg speedWind from/ knotsBaromVisibWave heightAir tempDewpointWater temp
2018-May-23 16:01N 18°01' W 063°03'0 0.4
2018-May-23 15:37N 18°01' W 063°03'1 6.4
2018-May-23 15:30N 18°01' W 063°04'3 6.2
2018-May-23 14:59N 18°02' W 063°07'1 1.4
2018-May-23 14:20N 18°01' W 063°08'1 3.1
2018-May-23 14:00N 18°02' W 063°07'1 2.9
2018-May-23 13:30N 18°01' W 063°05'2 1.3
2018-May-23 11:43N 18°01' W 063°03'0 0.0
2018-May-23 06:25N 18°01' W 063°03'0 0.0
2018-May-23 05:58N 18°01' W 063°03'0 0.0
2018-May-23 05:10N 18°01' W 063°03'0 0.0
2018-May-23 04:58N 18°01' W 063°03'0 0.0
2018-May-22 22:36N 18°01' W 063°03'0 0.1
2018-May-22 22:30N 18°01' W 063°03'1 0.3
2018-May-22 20:43N 18°01' W 063°03'1 6.4
2018-May-22 20:30N 18°01' W 063°05'3 5.5
2018-May-22 19:57N 18°03' W 063°08'0 0.1
2018-May-22 19:21N 18°03' W 063°08'0 1.3
2018-May-22 18:58N 18°02' W 063°07'2 4.8
2018-May-22 18:30N 18°01' W 063°05'2 1.1
2018-May-22 16:44N 18°01' W 063°03'2 6.2
2018-May-22 16:26N 18°01' W 063°05'3 5.7
2018-May-22 15:58N 18°02' W 063°08'1 1.3
2018-May-22 15:30N 18°03' W 063°08'2 3.0
2018-May-22 14:55N 18°02' W 063°07'1 2.7
2018-May-22 14:28N 18°01' W 063°06'3 0.2
2018-May-22 00:02N 18°01' W 063°03'0 0.0
2018-May-21 21:40N 18°01' W 063°03'1 0.5
2018-May-21 20:25N 18°01' W 063°04'3 6.1
2018-May-21 19:54N 18°02' W 063°07'2 4.2
2018-May-21 19:22N 18°03' W 063°09'2 4.4
2018-May-21 18:58N 18°02' W 063°08'2 3.2
2018-May-21 18:30N 18°02' W 063°06'2 4.2
2018-May-21 17:58N 18°01' W 063°04'1 0.1
2018-May-21 13:14N 18°01' W 063°04'2 6.3
2018-May-21 12:57N 18°01' W 063°05'3 6.0
2018-May-21 12:24N 18°03' W 063°08'2 4.5
2018-May-21 11:58N 18°05' W 063°09'3 6.2
2018-May-21 11:25N 18°04' W 063°06'0 0.2
2018-May-21 10:57N 18°04' W 063°06'0 0.0
2018-May-21 10:08N 18°04' W 063°06'0 0.0
2018-May-21 09:56N 18°04' W 063°06'0 0.0
2018-May-21 09:26N 18°04' W 063°06'0 0.0
2018-May-21 08:56N 18°04' W 063°06'0 0.0
2018-May-21 08:26N 18°04' W 063°06'0 0.0
2018-May-21 07:49N 18°04' W 063°06'0 0.0
2018-May-21 07:28N 18°04' W 063°06'0 0.0
2018-May-21 06:46N 18°04' W 063°06'0 0.0
2018-May-21 06:16N 18°04' W 063°06'0 0.0
2018-May-21 05:46N 18°04' W 063°06'0 0.0
2018-May-21 05:16N 18°04' W 063°06'0 0.0
2018-May-21 04:52N 18°04' W 063°06'0 0.0
2018-May-21 04:22N 18°04' W 063°06'0 0.0
2018-May-21 03:52N 18°04' W 063°06'0 0.0
2018-May-21 03:20N 18°04' W 063°06'0 0.0
2018-May-21 02:59N 18°04' W 063°06'0 0.0
2018-May-21 02:20N 18°04' W 063°06'0 0.0
2018-May-21 01:50N 18°04' W 063°06'0 0.0
2018-May-21 01:19N 18°04' W 063°06'0 0.0
2018-May-21 00:50N 18°04' W 063°06'0 0.0
2018-May-21 00:21N 18°04' W 063°06'0 0.0
2018-May-20 23:50N 18°04' W 063°06'0 0.0
2018-May-20 23:18N 18°04' W 063°06'0 0.0
2018-May-20 22:49N 18°04' W 063°06'0 0.0
2018-May-20 22:29N 18°04' W 063°06'0 0.0
2018-May-20 21:59N 18°04' W 063°06'0 0.0
2018-May-20 21:29N 18°04' W 063°06'0 0.0
2018-May-20 20:52N 18°04' W 063°06'0 0.0
2018-May-20 20:19N 18°04' W 063°06'0 0.0
2018-May-20 19:55N 18°04' W 063°06'0 0.0
2018-May-20 19:11N 18°04' W 063°06'0 0.1
2018-May-20 18:56N 18°04' W 063°06'0 0.0
2018-May-20 18:26N 18°04' W 063°06'0 0.0
2018-May-20 17:56N 18°04' W 063°06'0 0.0
2018-May-20 17:26N 18°04' W 063°06'0 0.0
2018-May-20 16:59N 18°04' W 063°06'0 0.0
2018-May-20 16:26N 18°04' W 063°06'0 0.0
2018-May-20 15:58N 18°04' W 063°06'0 0.0
2018-May-20 15:25N 18°04' W 063°06'0 0.0
2018-May-20 14:55N 18°04' W 063°06'0 0.0
2018-May-20 14:25N 18°04' W 063°06'0 0.0
2018-May-20 14:00N 18°04' W 063°06'0 0.0
2018-May-20 13:21N 18°04' W 063°06'0 0.0
2018-May-20 12:58N 18°04' W 063°06'0 0.0
2018-May-20 12:28N 18°04' W 063°06'0 0.0
2018-May-20 11:49N 18°04' W 063°06'0 0.0
2018-May-20 11:19N 18°04' W 063°06'0 0.0
2018-May-20 10:58N 18°04' W 063°06'0 0.0
2018-May-20 10:19N 18°04' W 063°06'0 0.0
2018-May-20 09:49N 18°04' W 063°06'0 0.0
2018-May-20 09:22N 18°04' W 063°06'0 0.0
2018-May-20 08:57N 18°04' W 063°06'0 0.0
2018-May-20 08:27N 18°04' W 063°06'0 0.0
2018-May-20 07:57N 18°04' W 063°06'0 0.0
2018-May-20 07:27N 18°04' W 063°06'0 0.0
2018-May-20 06:57N 18°04' W 063°06'0 0.0
2018-May-20 06:27N 18°04' W 063°06'0 0.0
2018-May-20 06:00N 18°04' W 063°06'0 0.0
2018-May-20 05:30N 18°04' W 063°06'0 0.0
2018-May-20 05:00N 18°04' W 063°06'0 0.0
2018-May-20 04:30N 18°04' W 063°06'0 0.0
2018-May-20 03:49N 18°04' W 063°06'0 0.0
2018-May-20 02:33N 18°04' W 063°06'0 0.1
2018-May-20 02:30N 18°04' W 063°06'0 0.0
2018-May-20 02:00N 18°04' W 063°06'0 0.0
2018-May-20 01:17N 18°04' W 063°06'0 0.0
2018-May-20 00:47N 18°04' W 063°06'0 0.0
2018-May-20 00:29N 18°04' W 063°06'0 0.0
2018-May-20 00:00N 18°04' W 063°06'0 0.0
2018-May-19 23:22N 18°04' W 063°06'0 0.0
2018-May-19 22:55N 18°04' W 063°06'  
2018-May-15 22:22N 18°04' W 063°10'2 6.8
2018-May-15 22:00N 18°02' W 063°08'4 7.0
2018-May-15 21:28N 18°01' W 063°04'1 1.7
2018-May-15 20:41N 18°01' W 063°03'1 3.4
2018-May-15 20:29N 18°01' W 063°03'3 5.5
2018-May-15 19:58N 18°02' W 063°06'2 4.7
2018-May-15 19:29N 18°03' W 063°08'1 1.7
2018-May-15 18:58N 18°02' W 063°08'2 3.4
2018-May-15 18:30N 18°01' W 063°06'2 4.1
2018-May-15 18:00N 18°01' W 063°04'1 0.3
2018-May-15 13:26N 18°01' W 063°03'0 0.0
2018-May-15 12:56N 18°01' W 063°03'0 0.0
2018-May-15 11:16N 18°01' W 063°03'0 0.0
2018-May-15 10:42N 18°01' W 063°03'0 0.0
2018-May-15 05:21N 18°01' W 063°03'0 0.0
2018-May-15 04:51N 18°01' W 063°03'0 0.0
2018-May-15 01:24N 18°01' W 063°03'  
Track history (hours):
 
Tides and Currents Weather Stations Pressure Air Temp Water Temp Dewpoint Dewpoint Depression Visibility Wind Speed Wind Dir Waves Ship Positions

Eldorado

Last reported at 2018-May-23 16:01 UTC. Time now 2018-May-26 00:40 UTC.
Position N 18°01' W 063°03'.

Length 38 m; draft 3 m.

Type: Sailing vessel. MMSI: 244670000.

Date/timePositionNaut miles runAvg speedWind from/ knotsBaromVisibWave heightAir tempDewpointWater temp
2018-May-23 16:01N 18°01' W 063°03'0 0.4
2018-May-23 15:37N 18°01' W 063°03'1 6.4
2018-May-23 15:30N 18°01' W 063°04'3 6.2
2018-May-23 14:59N 18°02' W 063°07'1 1.4
2018-May-23 14:20N 18°01' W 063°08'1 3.1
2018-May-23 14:00N 18°02' W 063°07'1 2.9
2018-May-23 13:30N 18°01' W 063°05'2 1.3
2018-May-23 11:43N 18°01' W 063°03'0 0.0
2018-May-23 06:25N 18°01' W 063°03'0 0.0
2018-May-23 05:58N 18°01' W 063°03'0 0.0
2018-May-23 05:10N 18°01' W 063°03'0 0.0
2018-May-23 04:58N 18°01' W 063°03'0 0.0
2018-May-22 22:36N 18°01' W 063°03'0 0.1
2018-May-22 22:30N 18°01' W 063°03'1 0.3
2018-May-22 20:43N 18°01' W 063°03'1 6.4
2018-May-22 20:30N 18°01' W 063°05'3 5.5
2018-May-22 19:57N 18°03' W 063°08'0 0.1
2018-May-22 19:21N 18°03' W 063°08'0 1.3
2018-May-22 18:58N 18°02' W 063°07'2 4.8
2018-May-22 18:30N 18°01' W 063°05'2 1.1
2018-May-22 16:44N 18°01' W 063°03'2 6.2
2018-May-22 16:26N 18°01' W 063°05'3 5.7
2018-May-22 15:58N 18°02' W 063°08'1 1.3
2018-May-22 15:30N 18°03' W 063°08'2 3.0
2018-May-22 14:55N 18°02' W 063°07'1 2.7
2018-May-22 14:28N 18°01' W 063°06'3 0.2
2018-May-22 00:02N 18°01' W 063°03'0 0.0
2018-May-21 21:40N 18°01' W 063°03'1 0.5
2018-May-21 20:25N 18°01' W 063°04'3 6.1
2018-May-21 19:54N 18°02' W 063°07'2 4.2
2018-May-21 19:22N 18°03' W 063°09'2 4.4
2018-May-21 18:58N 18°02' W 063°08'2 3.2
2018-May-21 18:30N 18°02' W 063°06'2 4.2
2018-May-21 17:58N 18°01' W 063°04'1 0.1
2018-May-21 13:14N 18°01' W 063°04'2 6.3
2018-May-21 12:57N 18°01' W 063°05'3 6.0
2018-May-21 12:24N 18°03' W 063°08'2 4.5
2018-May-21 11:58N 18°05' W 063°09'3 6.2
2018-May-21 11:25N 18°04' W 063°06'0 0.2
2018-May-21 10:57N 18°04' W 063°06'0 0.0
2018-May-21 10:08N 18°04' W 063°06'0 0.0
2018-May-21 09:56N 18°04' W 063°06'0 0.0
2018-May-21 09:26N 18°04' W 063°06'0 0.0
2018-May-21 08:56N 18°04' W 063°06'0 0.0
2018-May-21 08:26N 18°04' W 063°06'0 0.0
2018-May-21 07:49N 18°04' W 063°06'0 0.0
2018-May-21 07:28N 18°04' W 063°06'0 0.0
2018-May-21 06:46N 18°04' W 063°06'0 0.0
2018-May-21 06:16N 18°04' W 063°06'0 0.0
2018-May-21 05:46N 18°04' W 063°06'0 0.0
2018-May-21 05:16N 18°04' W 063°06'0 0.0
2018-May-21 04:52N 18°04' W 063°06'0 0.0
2018-May-21 04:22N 18°04' W 063°06'0 0.0
2018-May-21 03:52N 18°04' W 063°06'0 0.0
2018-May-21 03:20N 18°04' W 063°06'0 0.0
2018-May-21 02:59N 18°04' W 063°06'0 0.0
2018-May-21 02:20N 18°04' W 063°06'0 0.0
2018-May-21 01:50N 18°04' W 063°06'0 0.0
2018-May-21 01:19N 18°04' W 063°06'0 0.0
2018-May-21 00:50N 18°04' W 063°06'0 0.0
2018-May-21 00:21N 18°04' W 063°06'0 0.0
2018-May-20 23:50N 18°04' W 063°06'0 0.0
2018-May-20 23:18N 18°04' W 063°06'0 0.0
2018-May-20 22:49N 18°04' W 063°06'0 0.0
2018-May-20 22:29N 18°04' W 063°06'0 0.0
2018-May-20 21:59N 18°04' W 063°06'0 0.0
2018-May-20 21:29N 18°04' W 063°06'0 0.0
2018-May-20 20:52N 18°04' W 063°06'0 0.0
2018-May-20 20:19N 18°04' W 063°06'0 0.0
2018-May-20 19:55N 18°04' W 063°06'0 0.0
2018-May-20 19:11N 18°04' W 063°06'0 0.1
2018-May-20 18:56N 18°04' W 063°06'0 0.0
2018-May-20 18:26N 18°04' W 063°06'0 0.0
2018-May-20 17:56N 18°04' W 063°06'0 0.0
2018-May-20 17:26N 18°04' W 063°06'0 0.0
2018-May-20 16:59N 18°04' W 063°06'0 0.0
2018-May-20 16:26N 18°04' W 063°06'0 0.0
2018-May-20 15:58N 18°04' W 063°06'0 0.0
2018-May-20 15:25N 18°04' W 063°06'0 0.0
2018-May-20 14:55N 18°04' W 063°06'0 0.0
2018-May-20 14:25N 18°04' W 063°06'0 0.0
2018-May-20 14:00N 18°04' W 063°06'0 0.0
2018-May-20 13:21N 18°04' W 063°06'0 0.0
2018-May-20 12:58N 18°04' W 063°06'0 0.0
2018-May-20 12:28N 18°04' W 063°06'0 0.0
2018-May-20 11:49N 18°04' W 063°06'0 0.0
2018-May-20 11:19N 18°04' W 063°06'0 0.0
2018-May-20 10:58N 18°04' W 063°06'0 0.0
2018-May-20 10:19N 18°04' W 063°06'0 0.0
2018-May-20 09:49N 18°04' W 063°06'0 0.0
2018-May-20 09:22N 18°04' W 063°06'0 0.0
2018-May-20 08:57N 18°04' W 063°06'0 0.0
2018-May-20 08:27N 18°04' W 063°06'0 0.0
2018-May-20 07:57N 18°04' W 063°06'0 0.0
2018-May-20 07:27N 18°04' W 063°06'0 0.0
2018-May-20 06:57N 18°04' W 063°06'0 0.0
2018-May-20 06:27N 18°04' W 063°06'0 0.0
2018-May-20 06:00N 18°04' W 063°06'0 0.0
2018-May-20 05:30N 18°04' W 063°06'0 0.0
2018-May-20 05:00N 18°04' W 063°06'0 0.0
2018-May-20 04:30N 18°04' W 063°06'0 0.0
2018-May-20 03:49N 18°04' W 063°06'0 0.0
2018-May-20 02:33N 18°04' W 063°06'0 0.1
2018-May-20 02:30N 18°04' W 063°06'0 0.0
2018-May-20 02:00N 18°04' W 063°06'0 0.0
2018-May-20 01:17N 18°04' W 063°06'0 0.0
2018-May-20 00:47N 18°04' W 063°06'0 0.0
2018-May-20 00:29N 18°04' W 063°06'0 0.0
2018-May-20 00:00N 18°04' W 063°06'0 0.0
2018-May-19 23:22N 18°04' W 063°06'0 0.0
2018-May-19 22:55N 18°04' W 063°06'  
2018-May-15 22:22N 18°04' W 063°10'2 6.8
2018-May-15 22:00N 18°02' W 063°08'4 7.0
2018-May-15 21:28N 18°01' W 063°04'1 1.7
2018-May-15 20:41N 18°01' W 063°03'1 3.4
2018-May-15 20:29N 18°01' W 063°03'3 5.5
2018-May-15 19:58N 18°02' W 063°06'2 4.7
2018-May-15 19:29N 18°03' W 063°08'1 1.7
2018-May-15 18:58N 18°02' W 063°08'2 3.4
2018-May-15 18:30N 18°01' W 063°06'2 4.1
2018-May-15 18:00N 18°01' W 063°04'1 0.3
2018-May-15 13:26N 18°01' W 063°03'0 0.0
2018-May-15 12:56N 18°01' W 063°03'0 0.0
2018-May-15 11:16N 18°01' W 063°03'0 0.0
2018-May-15 10:42N 18°01' W 063°03'0 0.0
2018-May-15 05:21N 18°01' W 063°03'0 0.0
2018-May-15 04:51N 18°01' W 063°03'0 0.0
2018-May-15 01:24N 18°01' W 063°03'  

Dump ship's entire track history